createdAt,value
2022-10-01T00:02:07.466Z,16.03
2022-10-01T00:04:37.496Z,16.10
2022-10-01T00:07:10.967Z,16.16
2022-10-01T00:09:40.737Z,16.21
2022-10-01T00:12:07.887Z,16.23
2022-10-01T00:14:35.783Z,16.19
2022-10-01T00:17:03.830Z,16.22
2022-10-01T00:19:30.905Z,16.25
2022-10-01T00:21:57.862Z,16.27
2022-10-01T00:24:24.812Z,16.30
2022-10-01T00:26:51.818Z,16.26
2022-10-01T00:29:19.103Z,16.28
2022-10-01T00:31:46.125Z,16.29
2022-10-01T00:34:15.264Z,16.30
2022-10-01T00:36:44.942Z,16.27
2022-10-01T00:39:12.433Z,16.23
2022-10-01T00:41:39.684Z,16.31
2022-10-01T00:44:25.474Z,16.32
2022-10-01T00:46:55.204Z,16.28
2022-10-01T00:49:26.286Z,16.33
2022-10-01T00:51:58.168Z,16.23
2022-10-01T00:54:37.411Z,16.27
2022-10-01T00:57:08.150Z,16.25
2022-10-01T00:59:36.516Z,16.26
2022-10-01T01:02:03.746Z,16.29
2022-10-01T01:04:31.010Z,16.26
2022-10-01T01:07:01.170Z,16.23
2022-10-01T01:09:32.989Z,16.23
2022-10-01T01:12:11.904Z,16.21
2022-10-01T01:14:48.543Z,16.24
2022-10-01T01:17:34.201Z,16.21
2022-10-01T01:20:19.075Z,16.22
2022-10-01T01:22:57.767Z,16.22
2022-10-01T01:25:36.743Z,16.19
2022-10-01T01:28:19.656Z,16.26
2022-10-01T01:30:51.209Z,16.27
2022-10-01T01:33:22.775Z,16.27
2022-10-01T01:35:55.410Z,16.31
2022-10-01T01:38:29.021Z,16.33
2022-10-01T01:41:00.410Z,16.24
2022-10-01T01:43:36.270Z,16.20
2022-10-01T01:46:07.782Z,16.17
2022-10-01T01:48:37.810Z,16.11
2022-10-01T01:51:33.023Z,16.01
2022-10-01T01:54:00.551Z,16.06
2022-10-01T01:56:27.982Z,16.05
2022-10-01T01:58:55.073Z,16.03
2022-10-01T02:01:42.261Z,16.06
2022-10-01T02:04:25.540Z,16.10
2022-10-01T02:06:54.162Z,16.15
2022-10-01T02:09:23.954Z,16.12
2022-10-01T02:11:59.516Z,16.18
2022-10-01T02:14:37.382Z,16.16
2022-10-01T02:17:16.728Z,16.13
2022-10-01T02:20:18.406Z,16.07
2022-10-01T02:22:54.791Z,16.08
2022-10-01T02:25:27.121Z,16.04
2022-10-01T02:28:03.670Z,16.04
2022-10-01T02:30:35.666Z,15.99
2022-10-01T02:33:06.886Z,15.98
2022-10-01T02:35:35.954Z,15.94
2022-10-01T02:38:07.093Z,15.97
2022-10-01T02:40:38.019Z,15.97
2022-10-01T02:43:13.726Z,15.97
2022-10-01T02:45:45.117Z,15.92
2022-10-01T02:48:17.565Z,15.96
2022-10-01T02:51:02.274Z,15.91
2022-10-01T02:53:36.068Z,15.93
2022-10-01T02:56:05.398Z,15.97
2022-10-01T02:58:32.397Z,15.86
2022-10-01T03:00:59.427Z,15.81
2022-10-01T03:03:27.438Z,15.80
2022-10-01T03:05:54.481Z,15.82
2022-10-01T03:08:21.535Z,15.80
2022-10-01T03:10:48.482Z,15.77
2022-10-01T03:13:15.688Z,15.78
2022-10-01T03:15:45.796Z,15.80
2022-10-01T03:18:12.856Z,15.84
2022-10-01T03:20:39.809Z,15.88
2022-10-01T03:23:06.645Z,15.89
2022-10-01T03:25:33.648Z,15.91
2022-10-01T03:28:01.039Z,15.90
2022-10-01T03:30:28.573Z,15.81
2022-10-01T03:32:55.460Z,15.85
2022-10-01T03:35:22.977Z,15.88
2022-10-01T03:37:50.006Z,15.90
2022-10-01T03:40:17.102Z,15.90
2022-10-01T03:42:44.190Z,15.84
2022-10-01T03:45:11.309Z,15.80
2022-10-01T03:47:39.477Z,15.77
2022-10-01T03:50:07.058Z,15.84
2022-10-01T03:52:33.998Z,15.84
2022-10-01T03:55:01.126Z,15.88
2022-10-01T03:57:28.233Z,15.83
2022-10-01T03:59:55.286Z,15.76
2022-10-01T04:02:22.343Z,15.90
2022-10-01T04:07:30.511Z,15.82
2022-10-01T04:09:57.502Z,15.86
2022-10-01T04:12:27.045Z,15.85
2022-10-01T04:14:54.088Z,15.80
2022-10-01T04:17:21.013Z,15.67
2022-10-01T04:19:48.042Z,15.56
2022-10-01T04:22:15.160Z,15.51
2022-10-01T04:24:42.098Z,15.48
2022-10-01T04:27:09.428Z,15.50
2022-10-01T04:29:40.058Z,15.46
2022-10-01T04:32:07.695Z,15.47
2022-10-01T04:34:54.995Z,15.46
2022-10-01T04:37:22.867Z,15.40
2022-10-01T04:39:50.749Z,15.48
2022-10-01T04:42:17.865Z,15.45
2022-10-01T04:44:44.837Z,15.40
2022-10-01T04:47:11.831Z,15.40
2022-10-01T04:49:39.006Z,15.37
2022-10-01T04:52:06.271Z,15.33
2022-10-01T04:54:33.462Z,15.28
2022-10-01T04:57:00.651Z,15.33
2022-10-01T04:59:27.703Z,15.21
2022-10-01T05:01:54.769Z,15.23
2022-10-01T05:04:21.809Z,15.26
2022-10-01T05:06:48.855Z,15.20
2022-10-01T05:09:15.861Z,15.14
2022-10-01T05:11:42.751Z,15.13
2022-10-01T05:14:11.526Z,15.15
2022-10-01T05:16:38.598Z,15.08
2022-10-01T05:19:05.532Z,15.05
2022-10-01T05:21:32.685Z,15.14
2022-10-01T05:24:00.170Z,15.06
2022-10-01T05:26:27.361Z,14.90
2022-10-01T05:28:54.880Z,14.87
2022-10-01T05:31:22.005Z,14.66
2022-10-01T05:33:49.099Z,14.75
2022-10-01T05:36:16.174Z,14.70
2022-10-01T05:38:43.279Z,14.63
2022-10-01T05:41:10.746Z,14.67
2022-10-01T05:43:37.731Z,14.72
2022-10-01T05:46:07.415Z,14.75
2022-10-01T05:48:38.292Z,14.84
2022-10-01T05:51:08.323Z,14.83
2022-10-01T05:53:37.822Z,14.83
2022-10-01T05:56:06.742Z,14.85
2022-10-01T05:58:33.983Z,14.81
2022-10-01T06:01:01.201Z,14.89
2022-10-01T06:03:29.046Z,14.92
2022-10-01T06:05:56.340Z,14.93
2022-10-01T06:08:23.769Z,14.87
2022-10-01T06:10:50.862Z,14.73
2022-10-01T06:13:18.022Z,14.90
2022-10-01T06:15:47.269Z,15.01
2022-10-01T06:18:14.808Z,15.10
2022-10-01T06:20:42.121Z,15.03
2022-10-01T06:23:12.507Z,15.14
2022-10-01T06:25:41.645Z,15.07
2022-10-01T06:28:11.022Z,15.13
2022-10-01T06:30:39.394Z,15.09
2022-10-01T06:33:09.394Z,15.11
2022-10-01T06:35:41.981Z,15.18
2022-10-01T06:38:09.731Z,15.22
2022-10-01T06:40:37.516Z,15.33
2022-10-01T06:43:07.754Z,15.41
2022-10-01T06:45:41.270Z,15.49
2022-10-01T06:48:11.390Z,15.50
2022-10-01T06:50:38.500Z,15.40
2022-10-01T06:53:05.957Z,15.33
2022-10-01T06:55:35.226Z,15.42
2022-10-01T06:58:07.998Z,15.32
2022-10-01T07:00:36.795Z,15.34
2022-10-01T07:03:14.649Z,15.34
2022-10-01T07:05:42.152Z,15.32
2022-10-01T07:08:09.283Z,15.30
2022-10-01T07:10:36.669Z,15.35
2022-10-01T07:13:12.212Z,15.45
2022-10-01T07:15:39.447Z,15.42
2022-10-01T07:18:09.779Z,15.44
2022-10-01T07:20:39.924Z,15.37
2022-10-01T07:23:10.364Z,15.50
2022-10-01T07:25:38.986Z,15.54
2022-10-01T07:28:08.062Z,15.61
2022-10-01T07:30:38.294Z,15.63
2022-10-01T07:33:05.442Z,15.64
2022-10-01T07:35:32.561Z,15.67
2022-10-01T07:38:00.197Z,15.59
2022-10-01T07:40:27.713Z,15.51
2022-10-01T07:42:56.430Z,15.53
2022-10-01T07:45:26.056Z,15.44
2022-10-01T07:47:57.585Z,15.47
2022-10-01T07:50:26.304Z,15.48
2022-10-01T07:52:57.654Z,15.49
2022-10-01T07:55:27.312Z,15.60
2022-10-01T07:57:56.676Z,15.57
2022-10-01T08:00:26.568Z,15.47
2022-10-01T08:02:58.665Z,15.38
2022-10-01T08:05:29.212Z,15.43
2022-10-01T08:08:01.294Z,15.51
2022-10-01T08:10:29.261Z,15.58
2022-10-01T08:13:01.544Z,15.70
2022-10-01T08:15:29.332Z,15.79
2022-10-01T08:18:00.457Z,15.92
2022-10-01T08:20:28.364Z,15.98
2022-10-01T08:23:01.637Z,16.00
2022-10-01T08:25:28.798Z,16.11
2022-10-01T08:27:55.892Z,16.17
2022-10-01T08:30:22.927Z,16.25
2022-10-01T08:32:54.972Z,16.34
2022-10-01T08:35:22.887Z,16.44
2022-10-01T08:38:16.287Z,16.50
2022-10-01T08:40:51.457Z,16.58
2022-10-01T08:43:27.667Z,16.69
2022-10-01T08:45:58.305Z,16.74
2022-10-01T08:48:57.519Z,16.70
2022-10-01T08:51:43.516Z,16.75
2022-10-01T08:54:18.957Z,16.61
2022-10-01T08:56:48.062Z,16.62
2022-10-01T08:59:55.753Z,16.63
2022-10-01T09:02:26.275Z,16.63
2022-10-01T09:05:01.547Z,16.62
2022-10-01T09:08:51.381Z,16.65
2022-10-01T09:11:34.807Z,16.53
2022-10-01T09:14:10.008Z,16.55
2022-10-01T09:16:57.089Z,16.49
2022-10-01T09:19:47.893Z,16.36
2022-10-01T09:22:21.860Z,16.32
2022-10-01T09:25:00.214Z,16.38
2022-10-01T09:27:28.330Z,16.42
2022-10-01T09:30:01.940Z,16.45
2022-10-01T09:32:36.235Z,16.44
2022-10-01T09:35:15.596Z,16.34
2022-10-01T09:37:51.891Z,16.29
2022-10-01T09:40:38.583Z,16.25
2022-10-01T09:43:08.764Z,16.23
2022-10-01T09:45:37.960Z,16.26
2022-10-01T09:48:30.322Z,16.30
2022-10-01T09:51:40.047Z,16.28
2022-10-01T09:54:33.859Z,16.30
2022-10-01T09:57:07.124Z,16.32
2022-10-01T10:00:13.778Z,16.28
2022-10-01T10:02:49.960Z,16.30
2022-10-01T10:05:19.816Z,16.37
2022-10-01T10:08:03.391Z,16.22
2022-10-01T10:10:37.060Z,16.19
2022-10-01T10:13:14.258Z,16.20
2022-10-01T10:15:57.758Z,16.14
2022-10-01T10:18:39.233Z,16.25
2022-10-01T10:21:15.216Z,16.32
2022-10-01T10:23:50.652Z,16.45
2022-10-01T10:26:22.113Z,16.47
2022-10-01T10:28:49.614Z,16.57
2022-10-01T10:31:20.975Z,16.63
2022-10-01T10:33:51.262Z,16.64
2022-10-01T10:36:19.983Z,16.61
2022-10-01T10:38:49.844Z,16.66
2022-10-01T10:41:22.447Z,16.71
2022-10-01T10:43:49.615Z,16.62
2022-10-01T10:46:33.154Z,16.55
2022-10-01T10:49:10.631Z,16.48
2022-10-01T10:52:17.679Z,16.64
2022-10-01T10:54:48.782Z,16.52
2022-10-01T10:57:31.037Z,16.59
2022-10-01T11:00:13.836Z,16.71
2022-10-01T11:02:49.618Z,16.76
2022-10-01T11:05:43.446Z,16.98
2022-10-01T11:08:19.553Z,17.13
2022-10-01T11:11:10.517Z,17.17
2022-10-01T11:13:58.457Z,17.20
2022-10-01T11:17:07.245Z,17.11
2022-10-01T11:19:43.247Z,17.00
2022-10-01T11:22:41.346Z,16.81
2022-10-01T11:25:53.783Z,16.79
2022-10-01T11:29:12.071Z,16.82
2022-10-01T11:31:57.208Z,16.85
2022-10-01T11:34:50.447Z,16.78
2022-10-01T11:37:20.443Z,16.86
2022-10-01T11:39:53.773Z,16.88
2022-10-01T11:42:32.228Z,16.85
2022-10-01T11:45:13.999Z,17.03
2022-10-01T11:47:50.658Z,17.14
2022-10-01T11:50:27.434Z,17.18
2022-10-01T11:53:06.217Z,17.39
2022-10-01T11:55:59.837Z,17.49
2022-10-01T11:58:52.196Z,17.65
2022-10-01T12:02:44.138Z,17.81
2022-10-01T12:05:01.938Z,17.89
2022-10-01T12:08:05.829Z,17.95
2022-10-01T12:10:46.239Z,18.07
2022-10-01T12:13:17.453Z,18.07
2022-10-01T12:16:17.594Z,18.06
2022-10-01T12:18:55.937Z,18.01
2022-10-01T12:21:37.228Z,18.00
2022-10-01T12:24:11.677Z,17.94
2022-10-01T12:27:06.360Z,17.86
2022-10-01T12:30:43.183Z,17.84
2022-10-01T12:38:11.470Z,17.91
2022-10-01T12:42:28.686Z,17.87
2022-10-01T12:50:13.635Z,17.80
2022-10-01T12:53:51.033Z,17.87
2022-10-01T12:57:45.698Z,17.65
2022-10-01T13:01:09.272Z,17.53
2022-10-01T13:05:03.209Z,17.66
2022-10-01T13:08:41.981Z,17.65
2022-10-01T13:12:18.763Z,17.58
2022-10-01T13:19:58.492Z,17.71
2022-10-01T13:38:44.244Z,17.72
2022-10-01T13:41:27.915Z,17.74
2022-10-01T13:45:06.742Z,17.68
2022-10-01T13:48:10.366Z,17.59
2022-10-01T13:51:29.993Z,17.44
2022-10-01T14:00:05.317Z,17.52
2022-10-01T14:02:38.667Z,17.45
2022-10-01T14:05:28.512Z,17.46
2022-10-01T14:08:10.932Z,17.51
2022-10-01T14:11:07.145Z,17.45
2022-10-01T14:14:02.134Z,17.41
2022-10-01T14:16:30.418Z,17.46
2022-10-01T14:18:59.677Z,17.49
2022-10-01T14:21:45.370Z,17.52
2022-10-01T14:24:22.435Z,17.44
2022-10-01T14:27:05.019Z,17.38
2022-10-01T14:29:40.215Z,17.31
2022-10-01T14:32:23.171Z,17.29
2022-10-01T14:35:21.006Z,17.25
2022-10-01T14:37:57.112Z,17.27
2022-10-01T14:40:24.722Z,17.26
2022-10-01T14:42:59.096Z,17.26
2022-10-01T14:45:26.699Z,17.27
2022-10-01T14:48:05.610Z,17.28
2022-10-01T14:50:38.250Z,17.27
2022-10-01T14:53:09.590Z,17.20
2022-10-01T14:55:39.277Z,17.18
2022-10-01T14:58:06.456Z,17.15
2022-10-01T15:00:34.960Z,17.10
2022-10-01T15:03:13.242Z,17.10
2022-10-01T15:06:13.806Z,17.05
2022-10-01T15:08:48.107Z,17.05
2022-10-01T15:11:33.837Z,17.01
2022-10-01T15:14:10.848Z,17.06
2022-10-01T15:16:38.790Z,17.07
2022-10-01T15:19:16.115Z,16.97
2022-10-01T15:21:55.035Z,16.93
2022-10-01T15:24:29.960Z,17.01
2022-10-01T15:26:58.453Z,16.92
2022-10-01T15:29:28.134Z,16.95
2022-10-01T15:32:06.543Z,16.97
2022-10-01T15:34:35.311Z,16.95
2022-10-01T15:37:03.720Z,17.01
2022-10-01T15:39:51.870Z,17.00
2022-10-01T15:42:22.028Z,16.95
2022-10-01T15:45:09.007Z,16.92
2022-10-01T15:47:49.439Z,16.91
2022-10-01T15:50:20.115Z,16.78
2022-10-01T15:53:02.306Z,16.83
2022-10-01T15:55:43.081Z,16.79
2022-10-01T15:58:32.427Z,16.71
2022-10-01T16:01:05.847Z,16.76
2022-10-01T16:03:48.255Z,16.75
2022-10-01T16:06:23.950Z,16.70
2022-10-01T16:09:32.655Z,16.66
2022-10-01T16:11:59.871Z,16.66
2022-10-01T16:14:42.840Z,16.64
2022-10-01T16:17:21.948Z,16.63
2022-10-01T16:19:56.887Z,16.51
2022-10-01T16:22:29.449Z,16.62
2022-10-01T16:25:02.792Z,16.55
2022-10-01T16:27:44.128Z,16.67
2022-10-01T16:30:23.291Z,16.60
2022-10-01T16:32:50.540Z,16.57
2022-10-01T16:35:26.540Z,16.58
2022-10-01T16:37:58.070Z,16.50
2022-10-01T16:40:27.137Z,16.51
2022-10-01T16:42:54.535Z,16.49
2022-10-01T16:45:26.959Z,16.49
2022-10-01T16:47:58.525Z,16.46
2022-10-01T16:50:26.101Z,16.40
2022-10-01T16:53:13.018Z,16.40
2022-10-01T16:56:00.834Z,16.30
2022-10-01T16:58:28.127Z,16.36
2022-10-01T17:00:59.056Z,16.31
2022-10-01T17:03:28.219Z,16.32
2022-10-01T17:05:57.713Z,16.31
2022-10-01T17:08:24.939Z,16.40
2022-10-01T17:11:00.084Z,16.53
2022-10-01T17:13:29.123Z,16.53
2022-10-01T17:15:56.315Z,16.51
2022-10-01T17:18:23.498Z,16.52
2022-10-01T17:20:50.578Z,16.48
2022-10-01T17:23:19.809Z,16.41
2022-10-01T17:25:47.022Z,16.38
2022-10-01T17:28:17.341Z,16.33
2022-10-01T17:30:49.353Z,16.20
2022-10-01T17:33:19.552Z,16.21
2022-10-01T17:35:54.782Z,16.24
2022-10-01T17:38:23.194Z,16.28
2022-10-01T17:40:56.403Z,16.29
2022-10-01T17:43:24.371Z,16.00
2022-10-01T17:45:57.538Z,16.11
2022-10-01T17:48:26.185Z,16.12
2022-10-01T17:51:05.705Z,16.14
2022-10-01T17:53:42.607Z,16.18
2022-10-01T17:56:14.752Z,16.12
2022-10-01T17:58:45.239Z,16.10
2022-10-01T18:01:22.289Z,16.13
2022-10-01T18:03:55.588Z,16.05
2022-10-01T18:06:24.615Z,16.03
2022-10-01T18:08:55.568Z,15.99
2022-10-01T18:11:25.638Z,15.98
2022-10-01T18:13:53.268Z,15.95
2022-10-01T18:16:21.146Z,15.89
2022-10-01T18:19:51.890Z,15.84
2022-10-01T18:21:36.016Z,15.88
2022-10-01T18:24:04.755Z,15.88
2022-10-01T18:26:35.322Z,15.87
2022-10-01T18:29:02.500Z,15.84
2022-10-01T18:31:59.351Z,15.79
2022-10-01T18:34:38.505Z,15.81
2022-10-01T18:37:16.141Z,15.79
2022-10-01T18:39:49.972Z,15.77
2022-10-01T18:42:31.332Z,15.79
2022-10-01T18:45:01.381Z,15.89
2022-10-01T18:47:56.439Z,15.92
2022-10-01T18:50:35.734Z,15.91
2022-10-01T18:53:33.794Z,15.95
2022-10-01T18:56:28.091Z,15.88
2022-10-01T18:59:34.311Z,15.96
2022-10-01T19:02:50.371Z,16.06
2022-10-01T19:05:42.424Z,16.19
2022-10-01T19:08:40.457Z,16.11
2022-10-01T19:11:23.735Z,16.11
2022-10-01T19:14:22.158Z,16.21
2022-10-01T19:17:18.174Z,16.29
2022-10-01T19:20:07.135Z,16.29
2022-10-01T19:22:34.126Z,16.30
2022-10-01T19:25:19.714Z,16.23
2022-10-01T19:28:05.701Z,16.24
2022-10-01T19:30:42.939Z,16.18
2022-10-01T19:33:11.965Z,16.09
2022-10-01T19:35:46.800Z,16.01
2022-10-01T19:38:35.128Z,16.02
2022-10-01T19:41:27.965Z,15.90
2022-10-01T19:44:02.874Z,15.90
2022-10-01T19:46:37.820Z,15.82
2022-10-01T19:49:15.017Z,15.79
2022-10-01T19:52:00.341Z,15.82
2022-10-01T19:54:32.742Z,15.82
2022-10-01T19:57:17.187Z,15.83
2022-10-01T19:59:44.430Z,15.84
2022-10-01T20:02:24.291Z,15.88
2022-10-01T20:04:58.246Z,15.81
2022-10-01T20:07:37.580Z,15.82
2022-10-01T20:10:32.549Z,15.80
2022-10-01T20:13:33.092Z,15.77
2022-10-01T20:16:12.746Z,15.75
2022-10-01T20:18:58.565Z,15.68
2022-10-01T20:21:39.064Z,15.66
2022-10-01T20:24:15.128Z,15.64
2022-10-01T20:26:48.233Z,15.63
2022-10-01T20:29:29.050Z,15.69
2022-10-01T20:31:56.250Z,15.66
2022-10-01T20:35:01.846Z,15.66
2022-10-01T20:37:45.720Z,15.64
2022-10-01T20:40:28.317Z,15.58
2022-10-01T20:43:03.160Z,15.58
2022-10-01T20:45:34.363Z,15.66
2022-10-01T20:48:11.881Z,15.72
2022-10-01T20:50:46.510Z,15.73
2022-10-01T20:53:22.056Z,15.79
2022-10-01T20:55:54.707Z,15.75
2022-10-01T20:58:29.433Z,15.76
2022-10-01T21:01:07.778Z,15.69
2022-10-01T21:03:39.711Z,15.67
2022-10-01T21:06:23.310Z,15.66
2022-10-01T21:08:59.054Z,15.64
2022-10-01T21:11:45.206Z,15.69
2022-10-01T21:14:21.608Z,15.63
2022-10-01T21:17:21.051Z,15.66
2022-10-01T21:20:13.251Z,15.61
2022-10-01T21:23:10.648Z,15.65
2022-10-01T21:25:57.184Z,15.65
2022-10-01T21:29:41.241Z,15.76
2022-10-01T21:32:14.121Z,15.84
2022-10-01T21:35:13.341Z,15.88
2022-10-01T21:37:46.262Z,15.91
2022-10-01T21:40:42.598Z,15.97
2022-10-01T21:43:43.850Z,15.98
2022-10-01T21:46:37.006Z,15.99
2022-10-01T21:49:13.402Z,15.97
2022-10-01T21:52:00.067Z,15.83
2022-10-01T21:55:02.255Z,15.79
2022-10-01T21:58:01.522Z,15.76
2022-10-01T22:00:29.714Z,15.75
2022-10-01T22:03:00.706Z,15.73
2022-10-01T22:05:38.023Z,15.73
2022-10-01T22:08:44.213Z,15.75
2022-10-01T22:11:18.707Z,15.76
2022-10-01T22:14:19.471Z,15.78
2022-10-01T22:16:57.835Z,15.76
2022-10-01T22:19:31.517Z,15.72
2022-10-01T22:22:21.376Z,15.70
2022-10-01T22:24:53.754Z,15.67
2022-10-01T22:27:45.452Z,15.70
2022-10-01T22:30:17.233Z,15.65
2022-10-01T22:32:50.505Z,15.60
2022-10-01T22:35:26.359Z,15.61
2022-10-01T22:38:02.268Z,15.54
2022-10-01T22:40:34.050Z,15.55
2022-10-01T22:43:11.176Z,15.43
2022-10-01T22:46:40.092Z,15.44
2022-10-01T22:49:13.232Z,15.43
2022-10-01T22:51:58.190Z,15.39
2022-10-01T22:54:43.828Z,15.32
2022-10-01T22:57:27.231Z,15.16
2022-10-01T23:00:10.968Z,15.04
2022-10-01T23:03:15.227Z,14.98
2022-10-01T23:06:06.355Z,14.89
2022-10-01T23:09:03.072Z,14.87
2022-10-01T23:12:00.500Z,14.80
2022-10-01T23:14:46.494Z,14.73
2022-10-01T23:17:22.244Z,14.68
2022-10-01T23:20:13.642Z,14.59
2022-10-01T23:22:54.084Z,14.57
2022-10-01T23:25:58.371Z,14.52
2022-10-01T23:28:48.983Z,14.44
2022-10-01T23:31:45.624Z,14.30
2022-10-01T23:34:55.441Z,14.34
2022-10-01T23:37:41.286Z,14.30
2022-10-01T23:40:13.207Z,14.33
2022-10-01T23:42:59.933Z,14.32
2022-10-01T23:45:49.494Z,14.28
2022-10-01T23:48:28.052Z,14.21
2022-10-01T23:51:03.303Z,14.13
2022-10-01T23:53:42.812Z,14.11
2022-10-01T23:56:40.011Z,14.00
2022-10-01T23:59:34.355Z,13.96
